IRO2216 VEBD-VNLK
Flight info
| Callsign | IRO2216 |
|---|---|
| Flight time | N/A |
| Altitude | 12500 |
| Route | VNLK |
| Aircraft | C208/L-SDFGR/C |
Departure
| Time | 2025-01-14 10:33 |
|---|---|
| Airport | Bagdogra Airport (VEBD) |
Arrival
| Time | N/A |
|---|---|
| Airport | Tenzing-Hillary Airport (VNLK) |
| Time | Latitude | Longitude | Altitude | Speed | Heading |
|---|---|---|---|---|---|
| 2025-01-14 10:16 | 26.68521 | 88.32626 | 402 ft | 0 kts | 316° |
| 2025-01-14 10:29 | 26.68550 | 88.32697 | 406 ft | 8 kts | 88° |
| 2025-01-14 10:31 | 26.68508 | 88.32819 | 405 ft | 14 kts | 185° |
| 2025-01-14 10:31 | 26.67822 | 88.32793 | 489 ft | 84 kts | 180° |
| 2025-01-14 10:32 | 26.66640 | 88.32875 | 1041 ft | 85 kts | 175° |
| 2025-01-14 10:32 | 26.66076 | 88.32754 | 1289 ft | 88 kts | 216° |
| 2025-01-14 10:32 | 26.66549 | 88.31701 | 1740 ft | 110 kts | 356° |
| 2025-01-14 10:33 | 26.67950 | 88.31717 | 2508 ft | 103 kts | 2° |
| 2025-01-14 10:33 | 26.69448 | 88.31870 | 2928 ft | 120 kts | 6° |
| 2025-01-14 10:34 | 26.70993 | 88.31596 | 3501 ft | 118 kts | 329° |
| 2025-01-14 10:35 | 26.73242 | 88.30084 | 3979 ft | 136 kts | 330° |
| 2025-01-14 10:35 | 26.74099 | 88.29585 | 4128 ft | 141 kts | 333° |
| 2025-01-14 10:35 | 26.75921 | 88.28628 | 4390 ft | 147 kts | 328° |
| 2025-01-14 10:36 | 26.76234 | 88.26609 | 4630 ft | 146 kts | 249° |
| 2025-01-14 10:36 | 26.75429 | 88.24509 | 4883 ft | 148 kts | 245° |
| 2025-01-14 10:37 | 26.74081 | 88.21362 | 5249 ft | 152 kts | 244° |
| 2025-01-14 10:37 | 26.73611 | 88.20294 | 5373 ft | 154 kts | 244° |
| 2025-01-14 10:38 | 26.73775 | 88.18081 | 5615 ft | 152 kts | 300° |
| 2025-01-14 10:39 | 26.75485 | 88.15078 | 5989 ft | 154 kts | 304° |
| 2025-01-14 10:39 | 26.76683 | 88.13082 | 6247 ft | 155 kts | 305° |
| 2025-01-14 10:40 | 26.77877 | 88.11088 | 6502 ft | 154 kts | 305° |
| 2025-01-14 10:40 | 26.78475 | 88.10089 | 6627 ft | 155 kts | 305° |
| 2025-01-14 10:40 | 26.79479 | 88.08414 | 6829 ft | 154 kts | 305° |
| 2025-01-14 10:41 | 26.80671 | 88.06437 | 7057 ft | 154 kts | 305° |
| 2025-01-14 10:41 | 26.81870 | 88.04453 | 7300 ft | 154 kts | 305° |
| 2025-01-14 10:42 | 26.83661 | 88.01503 | 7644 ft | 152 kts | 304° |
| 2025-01-14 10:42 | 26.84256 | 88.00530 | 7763 ft | 151 kts | 304° |
| 2025-01-14 10:43 | 26.85443 | 87.98594 | 8008 ft | 151 kts | 304° |
| 2025-01-14 10:43 | 26.86631 | 87.96659 | 8280 ft | 151 kts | 305° |
| 2025-01-14 10:44 | 26.88423 | 87.93740 | 8683 ft | 152 kts | 305° |
| 2025-01-14 10:44 | 26.89024 | 87.92767 | 8805 ft | 152 kts | 305° |
| 2025-01-14 10:45 | 26.90223 | 87.90821 | 9061 ft | 152 kts | 305° |
| 2025-01-14 10:45 | 26.91410 | 87.88884 | 9294 ft | 150 kts | 305° |
| 2025-01-14 10:46 | 26.92580 | 87.86964 | 9540 ft | 148 kts | 305° |
| 2025-01-14 10:46 | 26.93737 | 87.85056 | 9782 ft | 148 kts | 300° |
| 2025-01-14 10:47 | 26.94995 | 87.83075 | 10000 ft | 158 kts | 307° |
| 2025-01-14 10:48 | 26.96955 | 87.79948 | 10021 ft | 167 kts | 305° |
| 2025-01-14 10:48 | 26.98267 | 87.77778 | 10008 ft | 168 kts | 304° |
| 2025-01-14 10:48 | 26.98921 | 87.76688 | 10033 ft | 169 kts | 304° |
| 2025-01-14 10:49 | 27.00225 | 87.74500 | 10031 ft | 170 kts | 305° |
| 2025-01-14 10:49 | 27.01547 | 87.72264 | 10045 ft | 172 kts | 305° |
| 2025-01-14 10:50 | 27.02868 | 87.70030 | 10050 ft | 174 kts | 305° |
| 2025-01-14 10:51 | 27.04877 | 87.66613 | 10045 ft | 175 kts | 304° |
| 2025-01-14 10:51 | 27.05393 | 87.65374 | 9989 ft | 178 kts | 285° |
| 2025-01-14 10:51 | 27.05068 | 87.62691 | 10035 ft | 175 kts | 259° |
| 2025-01-14 10:52 | 27.05084 | 87.59908 | 9702 ft | 175 kts | 291° |
| 2025-01-14 10:53 | 27.06598 | 87.56183 | 9372 ft | 174 kts | 293° |
| 2025-01-14 10:53 | 27.06811 | 87.55586 | 9291 ft | 176 kts | 294° |
| 2025-01-14 10:53 | 27.07681 | 87.53037 | 9150 ft | 173 kts | 291° |
| 2025-01-14 10:54 | 27.08513 | 87.50814 | 9064 ft | 175 kts | 297° |
| 2025-01-14 10:55 | 27.09785 | 87.47645 | 9478 ft | 158 kts | 294° |
| 2025-01-14 10:55 | 27.10483 | 87.45357 | 9811 ft | 155 kts | 285° |
| 2025-01-14 10:56 | 27.10819 | 87.42920 | 10001 ft | 165 kts | 264° |
| 2025-01-14 10:56 | 27.10482 | 87.41651 | 9961 ft | 175 kts | 252° |
| 2025-01-14 10:56 | 27.10100 | 87.38820 | 9617 ft | 193 kts | 282° |
| 2025-01-14 10:57 | 27.11578 | 87.36457 | 9528 ft | 177 kts | 316° |
| 2025-01-14 10:57 | 27.13150 | 87.34335 | 8854 ft | 175 kts | 310° |
| 2025-01-14 10:58 | 27.14681 | 87.32248 | 8103 ft | 176 kts | 302° |
| 2025-01-14 10:58 | 27.15983 | 87.29993 | 7311 ft | 173 kts | 307° |
| 2025-01-14 10:59 | 27.17512 | 87.27949 | 6434 ft | 171 kts | 311° |
| 2025-01-14 10:59 | 27.19176 | 87.25995 | 5417 ft | 173 kts | 306° |
| 2025-01-14 11:00 | 27.20964 | 87.24199 | 4492 ft | 174 kts | 328° |
| 2025-01-14 11:00 | 27.22961 | 87.22828 | 3935 ft | 168 kts | 332° |
| 2025-01-14 11:01 | 27.25041 | 87.21890 | 3394 ft | 157 kts | 342° |
| 2025-01-14 11:01 | 27.27031 | 87.21693 | 3076 ft | 129 kts | 18° |
| 2025-01-14 11:02 | 27.28269 | 87.21408 | 2882 ft | 91 kts | 317° |
| 2025-01-14 11:03 | 27.29888 | 87.20523 | 1907 ft | 90 kts | 314° |
| 2025-01-14 11:03 | 27.30874 | 87.19763 | 1461 ft | 83 kts | 334° |
| 2025-01-14 11:04 | 27.31554 | 87.19427 | 1382 ft | 17 kts | 43° |
| 2025-01-14 11:04 | 27.31593 | 87.19508 | 1383 ft | 9 kts | 360° |
| 2025-01-14 11:04 | 27.31607 | 87.19483 | 1383 ft | 0 kts | 155° |